Hartford, Michigan
Current Conditions -  °F | °C
As of 11:34 AM on Saturday 20 Dec 2014 (Local Time) from KLWA Reporting Station
Overcast Overcast  
Wind Chill: 28°   Ceiling: 2200
Heat Index: 28°   Visibility: 7mi
Dew Point: 24°   Wind: 3mph
Humidity: 84%   Direction: 130°SE
Pressure: 30.28"   Gusts: NA
Location:  42.21°N, 86.17°W
Report Text: KLWA 201634Z AUTO 13003KT 7SM OVC022 M02/M04 A3028 RMK AO2 T10201043
Loading
Personal Weather Stations






























Interactive Weather Map New forecast layout! Learn more

10-Day Weather Forecast

Advertisements
Track Severe Weather on mobile